Weather History for Kemmerer, WY

Change the Weather History Date:

Wednesday, August 14, 2013

  Actual Average Record
Temperature  
Mean Temperature 64 °F -  
Max Temperature 83 °F 77 °F 86 °F (1952)
Min Temperature 46 °F 42 °F 30 °F (1975)
Growing Degree Days 14 (Base 50)    
Moisture  
Dew Point 27 °F    
Average Humidity 31    
Maximum Humidity 63    
Minimum Humidity 7    
Precipitation  
Precipitation 0.00 in - - ()
Sea Level Pressure  
Sea Level Pressure 30.32 in    
Wind  
Wind Speed 8 mph (NW)    
Max Wind Speed 23 mph    
Max Gust Speed 38 mph    
Visibility 10 miles    
Events      
Averages and records for this station are not official NWS values.
T = Trace of Precipitation, MM = Missing Value Source: NWS Daily Summary

Daily Weather History Graph

Daily Weather History Graph

Search for Another Location

Airport:

Trip Planner

Search our weather history database for the weather conditions in past years. The results will help you decide how hot, cold, wet, or windy it might be!

Date:

Astronomy

Aug. 14, 2013 Rise Set
Actual Time 6:29 AM MDT 8:23 PM MDT
Civil Twilight 5:59 AM MDT 8:53 PM MDT
Nautical Twilight 5:22 AM MDT 9:29 PM MDT
Astronomical Twilight 4:43 AM MDT 10:09 PM MDT
Moon 2:40 PM MDT (8/14) No Moon Set
Length of Visible Light 14h 53m
Length of Day
13h 53m
First Quarter, 53% of the Moon is Illuminated
Aug 14
First Quarter
Aug 20
Full
Aug 28
Last Quarter
Sep 5
New
Sep 12
First Quarter

Hourly Weather History & Observations

Time (MDT) Temp. Windchill Dew Point Humidity Pressure Visibility Wind Dir Wind Speed Gust Speed Precip Events Conditions
12:15 AM 54.5 °F - 32.2 °F 43% 30.37 in 10.0 mi Calm Calm - N/A   Clear
12:35 AM 54.7 °F - 32.9 °F 44% 30.37 in 10.0 mi Calm Calm - N/A   Clear
12:55 AM 54.3 °F - 32.7 °F 44% 30.37 in 10.0 mi Calm Calm - N/A   Clear
1:15 AM 52.5 °F - 32.9 °F 47% 30.37 in 10.0 mi North 10.4 mph - N/A   Clear
1:35 AM 50.7 °F - 32.9 °F 51% 30.36 in 10.0 mi North 6.9 mph - N/A   Clear
1:55 AM 50.2 °F - 32.9 °F 52% 30.37 in 10.0 mi North 11.5 mph - N/A   Clear
2:15 AM 50.0 °F - 33.1 °F 52% 30.36 in 10.0 mi North 11.5 mph - N/A   Clear
2:35 AM 49.8 °F - 33.6 °F 54% 30.36 in 10.0 mi North 10.4 mph - N/A   Clear
2:55 AM 50.0 °F - 33.8 °F 54% 30.36 in 10.0 mi North 10.4 mph - N/A   Clear
3:15 AM 50.5 °F - 33.6 °F 52% 30.35 in 10.0 mi North 10.4 mph - N/A   Clear
3:35 AM 49.3 °F - 33.8 °F 55% 30.36 in 10.0 mi North 11.5 mph - N/A   Clear
3:55 AM 47.8 °F - 34.0 °F 59% 30.36 in 10.0 mi North 11.5 mph - N/A   Clear
4:15 AM 47.1 °F - 34.2 °F 61% 30.36 in 10.0 mi North 11.5 mph - N/A   Clear
4:35 AM 47.3 °F - 34.2 °F 60% 30.36 in 10.0 mi North 11.5 mph - N/A   Clear
4:55 AM 47.5 °F - 34.0 °F 59% 30.36 in 10.0 mi North 12.7 mph - N/A   Clear
5:15 AM 48.4 °F - 34.0 °F 58% 30.36 in 10.0 mi North 11.5 mph - N/A   Clear
5:35 AM 48.0 °F - 34.0 °F 58% 30.35 in 10.0 mi North 13.8 mph - N/A   Clear
5:55 AM 46.9 °F - 34.2 °F 61% 30.35 in 10.0 mi North 12.7 mph - N/A   Clear
6:15 AM 46.4 °F 41.1 °F 34.2 °F 62% 30.35 in 10.0 mi North 11.5 mph - N/A   Clear
6:35 AM 46.4 °F 41.5 °F 34.2 °F 62% 30.35 in 10.0 mi North 10.4 mph - N/A   Clear
6:55 AM 46.2 °F 40.8 °F 34.3 °F 63% 30.36 in 10.0 mi North 11.5 mph - N/A   Clear
7:15 AM 47.8 °F - 34.7 °F 60% 30.36 in 10.0 mi North 8.1 mph - N/A   Clear
7:35 AM 49.8 °F - 34.9 °F 56% 30.37 in 10.0 mi NE 4.6 mph - N/A   Clear
7:55 AM 51.4 °F - 35.6 °F 55% 30.37 in 10.0 mi NNE 3.5 mph - N/A   Clear
8:15 AM 52.7 °F - 35.8 °F 53% 30.37 in 10.0 mi North 4.6 mph - N/A   Clear
8:35 AM 54.9 °F - 36.0 °F 49% 30.37 in 10.0 mi North 4.6 mph - N/A   Clear
8:55 AM 58.3 °F - 36.1 °F 44% 30.37 in 10.0 mi NNE 3.5 mph - N/A   Clear
9:15 AM 60.3 °F - 36.9 °F 42% 30.36 in 10.0 mi Calm Calm - N/A   Clear
9:35 AM 63.3 °F - 37.4 °F 38% 30.37 in 10.0 mi Calm Calm - N/A   Clear
9:55 AM 66.0 °F - 36.9 °F 34% 30.36 in 10.0 mi ESE 3.5 mph - N/A   Clear
10:15 AM 67.1 °F - 36.9 °F 33% 30.36 in 10.0 mi SSE 3.5 mph - N/A   Clear
10:35 AM 68.4 °F - 36.5 °F 31% 30.35 in 10.0 mi Calm Calm - N/A   Clear
10:55 AM 70.5 °F - 36.3 °F 29% 30.35 in 10.0 mi South 3.5 mph - N/A   Clear
11:15 AM 72.5 °F - 34.5 °F 25% 30.35 in 10.0 mi South 4.6 mph - N/A   Clear
11:35 AM 73.6 °F - 34.0 °F 23% 30.34 in 10.0 mi South 6.9 mph - N/A   Clear
11:55 AM 74.8 °F - 33.4 °F 22% 30.34 in 10.0 mi SW 9.2 mph - N/A   Clear
12:15 PM 75.7 °F - 32.0 °F 20% 30.34 in 10.0 mi SSW 9.2 mph - N/A   Clear
12:35 PM 77.2 °F - 31.6 °F 19% 30.32 in 10.0 mi SW 5.8 mph - N/A   Clear
12:55 PM 78.6 °F - 30.4 °F 17% 30.32 in 10.0 mi SSW 4.6 mph - N/A   Clear
1:55 PM 81.9 °F - 21.0 °F 11% 30.30 in 10.0 mi WSW 16.1 mph 23.0 mph N/A   Scattered Clouds
2:15 PM 82.4 °F - 20.8 °F 10% 30.29 in 10.0 mi West 17.3 mph 23.0 mph N/A   Scattered Clouds
2:35 PM 81.7 °F - 22.3 °F 11% 30.29 in 10.0 mi WNW 15.0 mph 20.7 mph N/A   Scattered Clouds
2:55 PM 81.9 °F - 16.0 °F 9% 30.28 in 10.0 mi West 17.3 mph 27.6 mph N/A   Clear
3:15 PM 81.0 °F - 17.4 °F 9% 30.28 in 10.0 mi West 17.3 mph 26.5 mph N/A   Clear
3:35 PM 79.2 °F - 20.5 °F 11% 30.27 in 10.0 mi SSW 10.4 mph - N/A   Scattered Clouds
3:55 PM 81.5 °F - 19.8 °F 10% 30.27 in 10.0 mi West 23.0 mph 38.0 mph N/A   Scattered Clouds
4:15 PM 79.5 °F - 18.5 °F 10% 30.27 in 10.0 mi NW 12.7 mph 19.6 mph N/A   Scattered Clouds
4:35 PM 80.2 °F - 20.5 °F 11% 30.26 in 10.0 mi NW 11.5 mph 21.9 mph N/A   Clear
4:55 PM 83.3 °F - 14.9 °F 8% 30.26 in 10.0 mi West 17.3 mph 26.5 mph N/A   Clear
5:15 PM 83.1 °F - 13.6 °F 7% 30.26 in 10.0 mi West 17.3 mph 29.9 mph N/A   Clear
5:35 PM 82.6 °F - 15.1 °F 8% 30.26 in 10.0 mi West 20.7 mph 31.1 mph N/A   Clear
5:55 PM 81.7 °F - 16.2 °F 9% 30.27 in 10.0 mi West 18.4 mph 25.3 mph N/A   Clear
6:15 PM 81.3 °F - 16.5 °F 9% 30.26 in 10.0 mi West 21.9 mph 28.8 mph N/A   Clear
6:35 PM 80.8 °F - 16.2 °F 9% 30.26 in 10.0 mi West 18.4 mph 26.5 mph N/A   Clear
6:55 PM - - - N/A% 30.26 in 10.0 mi West 15.0 mph - N/A   Clear
7:15 PM 78.6 °F - 15.4 °F 9% 30.27 in 10.0 mi West 16.1 mph 26.5 mph N/A   Clear
7:35 PM 77.4 °F - 14.5 °F 9% 30.27 in 10.0 mi West 18.4 mph - N/A   Clear
7:55 PM 75.2 °F - 14.5 °F 10% 30.27 in 10.0 mi West 12.7 mph 18.4 mph N/A   Clear
8:15 PM 72.7 °F - 14.4 °F 11% 30.28 in 10.0 mi West 10.4 mph - N/A   Clear
8:35 PM 69.4 °F - 14.9 °F 12% 30.28 in 10.0 mi West 9.2 mph - N/A   Clear
8:55 PM 67.8 °F - 15.4 °F 13% 30.29 in 10.0 mi West 8.1 mph - N/A   Clear
9:15 PM 67.5 °F - 15.6 °F 14% 30.29 in 10.0 mi WNW 6.9 mph - N/A   Clear
9:35 PM 66.4 °F - 15.8 °F 14% 30.30 in 10.0 mi North 4.6 mph - N/A   Clear
9:55 PM 64.6 °F - 16.0 °F 15% 30.30 in 10.0 mi North 10.4 mph - N/A   Clear
10:15 PM 63.0 °F - 17.4 °F 17% 30.30 in 10.0 mi NNW 9.2 mph - N/A   Clear
10:35 PM 62.4 °F - 18.3 °F 18% 30.30 in 10.0 mi NNW 9.2 mph - N/A   Clear
10:55 PM 61.7 °F - 19.2 °F 19% 30.30 in 10.0 mi North 10.4 mph - N/A   Clear
11:15 PM 61.2 °F - 20.7 °F 21% 30.30 in 10.0 mi North 10.4 mph - N/A   Clear
11:35 PM 60.3 °F - 22.1 °F 23% 30.30 in 10.0 mi North 9.2 mph - N/A   Clear
11:55 PM 59.5 °F - 23.4 °F 25% 30.30 in 10.0 mi North 11.5 mph - N/A   Clear